Time;durP1;ratioP1;P1;durP2;ratioP2;P2;SDS_P1;SDS_P2;PMS_P1;PMS_P2;Temp;Humidity;BMP_temperature;BMP_pressure;BME280_temperature;BME280_humidity;BME280_pressure;Samples;Min_cycle;Max_cycle;Signal;HPM_P1;HPM_P2
2024/01/06 00:01:46;;;;;;;3.35;1.83;;;;;;;7.03;63.47;95993.88;4904817;28;20194;-80
2024/01/06 00:04:12;;;;;;;5.70;2.40;;;;;;;7.05;62.64;96002.16;4888318;28;20673;-80
2024/01/06 00:06:37;;;;;;;4.55;1.90;;;;;;;6.98;63.10;96007.53;4888485;28;20321;-80
2024/01/06 00:09:03;;;;;;;5.53;2.67;;;;;;;6.91;63.67;96002.59;4887464;28;20214;-80
2024/01/06 00:11:28;;;;;;;5.97;2.10;;;;;;;6.90;64.01;96010.59;4886771;28;20481;-80
2024/01/06 00:13:54;;;;;;;3.63;1.98;;;;;;;6.86;63.74;96012.91;4904936;28;20617;-80
2024/01/06 00:16:20;;;;;;;4.25;2.28;;;;;;;6.81;63.85;96010.28;4889572;28;20098;-81
2024/01/06 00:18:46;;;;;;;6.15;2.25;;;;;;;6.83;63.57;96018.56;4902304;28;20249;-80
2024/01/06 00:21:11;;;;;;;4.95;2.10;;;;;;;6.78;64.74;96013.34;4906730;28;20690;-80
2024/01/06 00:23:37;;;;;;;6.30;2.00;;;;;;;6.79;64.80;96014.94;4890233;28;20306;-80
2024/01/06 00:26:03;;;;;;;4.03;2.20;;;;;;;6.86;65.28;96009.53;4907563;28;20324;-80
2024/01/06 00:28:28;;;;;;;8.00;2.60;;;;;;;6.74;65.32;96000.16;4890533;28;20300;-80
2024/01/06 00:30:54;;;;;;;5.35;2.40;;;;;;;6.78;65.26;96008.19;4907102;28;20190;-81
2024/01/06 00:33:19;;;;;;;4.90;2.60;;;;;;;6.86;65.59;96007.72;4890847;28;20106;-81
2024/01/06 00:35:44;;;;;;;4.10;2.30;;;;;;;6.95;64.59;96002.88;4922324;28;20240;-81
2024/01/06 00:38:10;;;;;;;4.80;2.00;;;;;;;7.03;64.45;96009.41;4905299;28;20684;-81
2024/01/06 00:40:35;;;;;;;6.50;1.75;;;;;;;7.11;64.94;96019.25;4888868;28;20533;-81
2024/01/06 00:43:00;;;;;;;4.28;2.03;;;;;;;7.12;64.79;96018.25;4888545;28;20455;-82
2024/01/06 00:45:26;;;;;;;4.40;2.42;;;;;;;7.08;64.57;96015.38;4889250;28;20191;-81
2024/01/06 00:47:51;;;;;;;5.78;2.58;;;;;;;7.15;65.44;96020.34;4921432;28;20103;-81
2024/01/06 00:50:19;;;;;;;4.05;2.53;;;;;;;7.21;65.54;96021.13;4889920;28;20204;-81
2024/01/06 00:52:44;;;;;;;6.68;2.38;;;;;;;7.30;64.32;96022.22;4888578;28;20198;-81
2024/01/06 00:55:10;;;;;;;5.80;2.78;;;;;;;7.33;64.66;96024.28;4905522;28;20667;-81
2024/01/06 00:57:35;;;;;;;4.50;2.72;;;;;;;7.32;64.34;96023.53;4902412;28;20578;-81
2024/01/06 01:00:00;;;;;;;4.20;2.40;;;;;;;7.41;64.24;96018.66;4890784;28;20195;-80
2024/01/06 01:02:26;;;;;;;5.50;2.03;;;;;;;7.40;63.86;96024.06;4886459;28;20347;-82
2024/01/06 01:04:52;;;;;;;5.55;2.63;;;;;;;7.43;64.73;96028.75;4921812;28;20210;-81
2024/01/06 01:07:18;;;;;;;6.88;2.70;;;;;;;7.48;64.67;96039.13;4890693;28;20207;-82
2024/01/06 01:09:43;;;;;;;5.40;2.65;;;;;;;7.45;64.37;96047.41;4904909;28;20232;-81
2024/01/06 01:12:08;;;;;;;6.22;2.45;;;;;;;7.49;64.55;96041.47;4885836;28;20333;-81
2024/01/06 01:14:34;;;;;;;4.93;2.72;;;;;;;7.54;64.44;96035.56;4909561;28;20184;-81
2024/01/06 01:16:59;;;;;;;8.00;2.60;;;;;;;7.53;64.18;96040.97;4875764;28;20290;-81
2024/01/06 01:19:24;;;;;;;6.45;2.45;;;;;;;7.62;63.98;96045.41;4889574;28;20235;-81
2024/01/06 01:21:53;;;;;;;4.90;2.30;;;;;;;7.63;63.65;96038.44;4891747;28;20194;-81
2024/01/06 01:24:18;;;;;;;3.78;2.35;;;;;;;7.58;63.48;96046.19;4874014;28;20707;-82
2024/01/06 01:26:44;;;;;;;5.03;2.65;;;;;;;7.71;62.90;96055.28;4881712;28;20245;-81
2024/01/06 01:29:09;;;;;;;6.07;2.97;;;;;;;7.65;62.76;96051.91;4921369;28;20276;-80
2024/01/06 01:31:34;;;;;;;5.38;2.50;;;;;;;7.66;64.19;96058.66;4872863;28;20267;-81
2024/01/06 01:34:00;;;;;;;4.47;2.50;;;;;;;7.71;63.41;96060.47;4886876;28;20182;-81
2024/01/06 01:36:25;;;;;;;5.38;2.42;;;;;;;7.67;64.01;96058.38;4876565;28;20182;-81
2024/01/06 01:38:51;;;;;;;3.88;3.25;;;;;;;7.60;63.92;96055.25;4890990;28;20161;-81
2024/01/06 01:41:16;;;;;;;4.43;2.67;;;;;;;7.56;64.27;96053.44;4874309;28;20390;-80
2024/01/06 01:43:41;;;;;;;7.00;2.83;;;;;;;7.56;63.95;96059.38;4888413;28;20201;-80
2024/01/06 01:46:07;;;;;;;4.45;2.15;;;;;;;7.62;63.25;96062.78;4889175;28;20325;-80
2024/01/06 01:48:34;;;;;;;5.30;2.38;;;;;;;7.61;64.37;96066.41;4888939;28;20366;-80
2024/01/06 01:50:59;;;;;;;3.38;2.40;;;;;;;7.55;64.46;96070.75;4904703;28;20578;-80
2024/01/06 01:53:26;;;;;;;6.68;2.80;;;;;;;7.58;64.03;96061.72;4888014;28;20254;-80
2024/01/06 01:55:52;;;;;;;7.22;3.20;;;;;;;7.53;63.87;96064.28;4903476;28;20175;-80
2024/01/06 01:58:17;;;;;;;6.85;2.40;;;;;;;7.57;63.97;96066.09;4894968;28;20661;-80
2024/01/06 02:00:42;;;;;;;5.72;2.80;;;;;;;7.60;63.25;96067.44;4888172;28;20431;-80
2024/01/06 02:03:09;;;;;;;4.90;2.80;;;;;;;7.70;63.66;96072.66;4886850;28;20197;-80
2024/01/06 02:05:34;;;;;;;5.18;2.50;;;;;;;7.71;63.49;96076.00;4918196;28;20649;-80
2024/01/06 02:08:00;;;;;;;4.78;2.63;;;;;;;7.77;62.42;96075.00;4886680;28;20168;-80
2024/01/06 02:10:25;;;;;;;6.60;2.55;;;;;;;7.68;62.95;96057.34;4907363;28;20359;-80
2024/01/06 02:12:51;;;;;;;3.45;2.35;;;;;;;7.67;64.45;96053.19;4891061;28;20193;-80
2024/01/06 02:15:17;;;;;;;6.28;2.85;;;;;;;7.65;63.47;96039.72;4905105;28;20142;-80
2024/01/06 02:17:43;;;;;;;3.63;2.88;;;;;;;7.57;64.50;96053.16;4908556;28;20317;-80
2024/01/06 02:20:09;;;;;;;3.97;2.90;;;;;;;7.66;64.60;96069.78;4908690;28;20214;-80
2024/01/06 02:22:35;;;;;;;5.50;3.15;;;;;;;7.66;63.31;96062.03;4907809;28;20167;-80
2024/01/06 02:25:01;;;;;;;4.93;3.17;;;;;;;7.61;63.47;96072.34;4892504;28;20214;-80
2024/01/06 02:27:26;;;;;;;6.38;2.90;;;;;;;7.63;63.37;96078.06;4892233;28;20233;-80
2024/01/06 02:29:51;;;;;;;7.47;3.00;;;;;;;7.63;63.57;96075.47;4892225;28;20254;-80
2024/01/06 02:32:17;;;;;;;5.88;2.72;;;;;;;7.64;63.82;96074.44;4890794;28;20163;-80
2024/01/06 02:34:42;;;;;;;3.88;2.95;;;;;;;7.73;63.51;96076.53;4876510;28;20730;-80
2024/01/06 02:37:08;;;;;;;5.78;2.80;;;;;;;7.73;63.47;96073.94;4908014;28;20180;-80
2024/01/06 02:39:33;;;;;;;6.75;2.90;;;;;;;7.73;63.43;96079.13;4907172;28;20724;-80
2024/01/06 02:41:58;;;;;;;6.93;3.45;;;;;;;7.68;63.06;96083.25;4891277;28;20255;-80
2024/01/06 02:44:24;;;;;;;6.20;2.72;;;;;;;7.69;63.34;96077.06;4893408;28;20216;-80
2024/01/06 02:46:49;;;;;;;5.68;2.88;;;;;;;7.73;63.64;96073.94;4892215;28;20358;-80
2024/01/06 02:49:15;;;;;;;6.28;2.75;;;;;;;7.75;63.60;96082.28;4891481;28;20182;-80
2024/01/06 02:51:40;;;;;;;4.45;2.65;;;;;;;7.63;63.76;96075.47;4907996;28;20206;-80
2024/01/06 02:54:05;;;;;;;3.70;2.58;;;;;;;7.67;63.21;96060.97;4890274;28;20782;-81
2024/01/06 02:56:31;;;;;;;4.68;2.88;;;;;;;7.68;63.67;96077.31;4874965;28;20120;-80
2024/01/06 02:58:56;;;;;;;4.63;2.80;;;;;;;7.50;64.10;96088.88;4924411;28;20675;-80
2024/01/06 03:01:21;;;;;;;5.07;2.58;;;;;;;7.49;63.43;96087.31;4907218;28;20253;-80
2024/01/06 03:03:47;;;;;;;5.35;2.85;;;;;;;7.50;63.77;96081.91;4911974;28;21502;-80
2024/01/06 03:06:12;;;;;;;4.93;2.40;;;;;;;7.55;64.13;96088.13;4904901;28;20174;-80
2024/01/06 03:08:37;;;;;;;5.13;2.55;;;;;;;7.50;64.04;96081.91;4906267;28;20644;-80
2024/01/06 03:11:05;;;;;;;6.30;2.97;;;;;;;7.53;63.89;96093.56;4875132;28;20190;-80
2024/01/06 03:13:30;;;;;;;5.18;2.55;;;;;;;7.54;64.48;96102.09;4891699;28;20369;-80
2024/01/06 03:15:56;;;;;;;5.07;2.75;;;;;;;7.60;64.43;96108.88;4894048;28;20253;-80
2024/01/06 03:18:21;;;;;;;4.85;2.72;;;;;;;7.66;64.00;96108.66;4874335;28;20395;-80
2024/01/06 03:20:46;;;;;;;6.10;3.22;;;;;;;7.62;63.14;96115.34;4888495;28;20284;-80
2024/01/06 03:23:12;;;;;;;5.82;3.30;;;;;;;7.63;63.60;96114.31;4906290;28;20782;-80
2024/01/06 03:25:37;;;;;;;6.82;3.60;;;;;;;7.62;63.43;96114.56;4887269;28;20686;-80
2024/01/06 03:28:02;;;;;;;5.68;2.70;;;;;;;7.63;63.97;96106.56;4875254;28;20652;-80
2024/01/06 03:30:28;;;;;;;6.45;3.00;;;;;;;7.57;63.27;96099.78;4908059;28;20637;-80
2024/01/06 03:32:53;;;;;;;5.93;3.05;;;;;;;7.58;63.58;96106.53;4907233;28;20175;-80
2024/01/06 03:35:18;;;;;;;7.78;3.72;;;;;;;7.69;63.98;96110.75;4907195;28;20818;-80
2024/01/06 03:37:44;;;;;;;5.10;2.47;;;;;;;7.67;63.96;96105.00;4908555;28;20263;-80
2024/01/06 03:40:10;;;;;;;6.70;3.47;;;;;;;7.79;63.75;96112.59;4905217;28;20180;-80
2024/01/06 03:42:36;;;;;;;5.80;3.13;;;;;;;7.65;63.05;96101.91;4907170;28;20183;-79
2024/01/06 03:45:02;;;;;;;6.20;3.35;;;;;;;7.72;63.29;96109.44;4906341;28;20239;-80
2024/01/06 03:47:27;;;;;;;5.90;3.50;;;;;;;7.68;63.67;96104.00;4905877;28;20365;-80
2024/01/06 03:49:53;;;;;;;4.72;3.10;;;;;;;7.67;63.10;96099.06;4907981;28;20777;-80
2024/01/06 03:52:19;;;;;;;7.68;3.35;;;;;;;7.69;63.49;96105.56;4890415;28;20198;-80
2024/01/06 03:54:45;;;;;;;6.18;3.38;;;;;;;7.79;63.95;96107.41;4874629;28;20199;-80
2024/01/06 03:57:10;;;;;;;7.40;3.55;;;;;;;7.69;63.68;96099.59;4893095;28;20248;-79
2024/01/06 03:59:35;;;;;;;6.68;3.38;;;;;;;7.67;63.54;96107.59;4906571;28;20317;-80
2024/01/06 04:02:01;;;;;;;6.95;3.40;;;;;;;7.68;63.67;96118.75;4893772;28;20696;-81
2024/01/06 04:04:26;;;;;;;16.25;3.65;;;;;;;7.62;64.57;96114.56;4905956;28;20164;-81
2024/01/06 04:06:52;;;;;;;4.40;2.88;;;;;;;7.63;64.58;96119.50;4891317;28;20393;-81
2024/01/06 04:09:17;;;;;;;4.82;3.47;;;;;;;7.65;64.57;96121.84;4907137;28;20356;-81
2024/01/06 04:11:42;;;;;;;4.07;3.35;;;;;;;7.54;64.80;96110.66;4906051;28;20657;-81
2024/01/06 04:14:08;;;;;;;9.73;3.42;;;;;;;7.52;64.60;96120.47;4890347;28;20292;-81
2024/01/06 04:16:33;;;;;;;6.07;3.90;;;;;;;7.57;65.14;96125.69;4876813;28;20202;-81
2024/01/06 04:18:58;;;;;;;5.47;3.70;;;;;;;7.57;64.59;96119.72;4906965;28;20747;-81
2024/01/06 04:21:24;;;;;;;9.15;3.80;;;;;;;7.73;63.93;96120.59;4874574;28;20227;-82
2024/01/06 04:23:49;;;;;;;5.60;3.78;;;;;;;7.68;64.85;96114.34;4890667;28;20197;-80
2024/01/06 04:26:14;;;;;;;6.50;3.85;;;;;;;7.69;64.05;96120.31;4891153;28;20360;-80
2024/01/06 04:28:40;;;;;;;7.65;3.92;;;;;;;7.76;63.98;96123.47;4906510;28;20525;-81
2024/01/06 04:31:05;;;;;;;6.85;3.75;;;;;;;7.81;63.70;96127.88;4890045;28;20516;-80
2024/01/06 04:33:31;;;;;;;5.82;3.50;;;;;;;7.84;64.24;96127.38;4905945;28;20253;-81
2024/01/06 04:35:57;;;;;;;5.32;3.47;;;;;;;7.86;63.45;96123.53;4892162;28;20292;-81
2024/01/06 04:38:23;;;;;;;5.80;3.47;;;;;;;7.91;63.12;96127.94;4891077;28;20197;-81
2024/01/06 04:40:48;;;;;;;8.30;3.97;;;;;;;7.83;64.39;96120.63;4906598;28;20065;-80
2024/01/06 04:43:13;;;;;;;7.63;3.80;;;;;;;7.85;64.02;96124.53;4890607;28;20190;-81
2024/01/06 04:45:39;;;;;;;8.82;3.97;;;;;;;7.75;64.39;96129.69;4907641;28;20118;-81
2024/01/06 04:48:05;;;;;;;5.93;3.78;;;;;;;7.80;64.80;96121.16;4891352;28;20194;-81
2024/01/06 04:50:30;;;;;;;6.75;3.78;;;;;;;7.69;64.43;96112.53;4907895;28;20164;-81
2024/01/06 04:52:56;;;;;;;7.97;4.25;;;;;;;7.65;63.78;96117.44;4906453;28;20595;-80
2024/01/06 04:55:21;;;;;;;6.85;3.78;;;;;;;7.72;63.85;96122.41;4924538;28;20221;-80
2024/01/06 04:57:48;;;;;;;5.90;3.47;;;;;;;7.76;64.62;96125.25;4906880;28;20273;-80
2024/01/06 05:00:14;;;;;;;7.40;3.92;;;;;;;7.78;64.50;96124.00;4937442;28;20190;-81
2024/01/06 05:02:39;;;;;;;6.53;3.55;;;;;;;7.77;63.96;96116.47;4905830;28;20221;-79
2024/01/06 05:05:05;;;;;;;5.78;3.85;;;;;;;7.85;63.70;96124.53;4890224;28;20690;-80
2024/01/06 05:07:30;;;;;;;6.32;3.28;;;;;;;7.72;63.94;96116.44;4889813;28;20196;-81
2024/01/06 05:09:56;;;;;;;8.05;3.72;;;;;;;7.69;64.56;96121.09;4906344;28;20139;-80
2024/01/06 05:12:21;;;;;;;7.93;4.32;;;;;;;7.75;63.87;96123.72;4886487;28;20855;-80
2024/01/06 05:14:46;;;;;;;6.13;3.65;;;;;;;7.74;64.46;96128.09;4889368;28;20292;-80
2024/01/06 05:17:12;;;;;;;6.88;4.38;;;;;;;7.72;64.83;96132.00;4888586;28;20315;-80
2024/01/06 05:19:37;;;;;;;9.13;4.57;;;;;;;7.74;64.32;96130.69;4903383;28;20198;-80
2024/01/06 05:22:03;;;;;;;6.88;4.20;;;;;;;7.86;63.89;96135.69;4904266;28;20100;-80
2024/01/06 05:24:28;;;;;;;6.93;3.88;;;;;;;7.85;64.27;96139.31;4904308;28;20128;-80
2024/01/06 05:26:54;;;;;;;6.40;3.65;;;;;;;7.91;64.37;96135.69;4904535;28;20656;-80
2024/01/06 05:29:19;;;;;;;7.13;4.00;;;;;;;7.91;64.56;96140.88;4920793;28;20167;-80
2024/01/06 05:31:48;;;;;;;7.45;4.25;;;;;;;7.87;64.00;96142.44;4904700;28;20217;-79
2024/01/06 05:34:17;;;;;;;7.60;4.32;;;;;;;7.85;63.55;96142.69;4903605;28;20245;-80
2024/01/06 05:36:42;;;;;;;9.75;4.40;;;;;;;7.86;64.68;96141.66;4904377;28;20202;-80
2024/01/06 05:39:08;;;;;;;8.40;4.40;;;;;;;7.87;64.41;96145.81;4904678;28;20236;-80
2024/01/06 05:41:40;;;;;;;6.75;4.50;;;;;;;7.97;63.96;96147.66;4893337;28;20635;-80
2024/01/06 05:44:05;;;;;;;9.10;5.13;;;;;;;7.92;64.10;96144.25;4886553;28;20231;-80
2024/01/06 05:46:31;;;;;;;10.52;4.57;;;;;;;7.88;64.43;96136.19;4920841;28;20261;-80
2024/01/06 05:48:57;;;;;;;8.80;4.75;;;;;;;7.91;64.47;96151.25;4872247;28;20186;-80
2024/01/06 05:51:23;;;;;;;7.30;4.30;;;;;;;7.95;64.81;96149.75;4904543;28;20692;-80
2024/01/06 05:53:48;;;;;;;9.48;4.80;;;;;;;7.95;64.25;96154.13;4907114;28;20268;-80
2024/01/06 05:56:26;;;;;;;7.00;4.70;;;;;;;8.01;65.04;96156.50;4904353;28;20241;-80
2024/01/06 05:58:52;;;;;;;9.32;4.35;;;;;;;7.81;64.25;96152.00;4885414;28;20681;-80
2024/01/06 06:01:19;;;;;;;10.00;4.90;;;;;;;7.90;64.64;96154.91;4886327;28;20582;-80
2024/01/06 06:03:44;;;;;;;7.95;4.75;;;;;;;7.90;64.07;96162.66;4886231;28;20202;-80
2024/01/06 06:06:09;;;;;;;13.65;5.63;;;;;;;7.87;65.29;96158.00;4902800;28;20703;-80
2024/01/06 06:08:35;;;;;;;8.73;4.95;;;;;;;8.02;64.05;96165.84;4903490;28;20587;-80
2024/01/06 06:11:10;;;;;;;8.45;5.32;;;;;;;7.88;64.33;96159.53;4904178;28;20085;-81
2024/01/06 06:13:42;;;;;;;8.02;4.90;;;;;;;8.03;63.92;96162.19;4888299;28;20206;-80
2024/01/06 06:16:14;;;;;;;10.27;4.95;;;;;;;8.09;64.57;96170.00;4888715;28;20359;-81
2024/01/06 06:18:39;;;;;;;7.90;5.40;;;;;;;7.96;63.98;96171.25;4904515;28;20214;-81
2024/01/06 06:21:06;;;;;;;7.68;4.70;;;;;;;7.79;64.41;96169.59;4905213;28;20249;-80
2024/01/06 06:23:32;;;;;;;7.93;4.78;;;;;;;7.90;64.10;96172.25;4885601;28;20210;-80
2024/01/06 06:25:57;;;;;;;8.90;4.95;;;;;;;7.91;65.13;96176.41;4919746;28;20209;-80
2024/01/06 06:28:23;;;;;;;10.75;5.50;;;;;;;7.97;64.67;96183.16;4871018;28;20168;-80
2024/01/06 06:30:48;;;;;;;9.30;5.28;;;;;;;8.02;64.29;96185.78;4889677;28;20214;-80
2024/01/06 06:33:13;;;;;;;10.90;5.63;;;;;;;7.96;65.00;96192.75;4884383;28;20201;-80
2024/01/06 06:35:39;;;;;;;8.48;5.82;;;;;;;7.98;65.23;96197.69;4885895;28;20680;-80
2024/01/06 06:38:04;;;;;;;8.35;5.32;;;;;;;8.01;64.46;96192.00;4886021;28;20268;-80
2024/01/06 06:40:30;;;;;;;11.57;5.38;;;;;;;8.01;64.53;96202.38;4903838;28;20190;-80
2024/01/06 06:42:55;;;;;;;9.70;6.13;;;;;;;7.97;65.06;96201.31;4918920;28;20750;-80
2024/01/06 06:45:22;;;;;;;12.32;5.53;;;;;;;7.92;64.94;96199.47;4903178;28;20709;-79
2024/01/06 06:47:49;;;;;;;9.45;5.70;;;;;;;8.00;64.77;96216.34;4901316;28;20791;-80
2024/01/06 06:50:16;;;;;;;9.93;5.47;;;;;;;8.06;64.65;96216.13;4887039;28;20343;-80
2024/01/06 06:52:42;;;;;;;12.75;6.07;;;;;;;8.02;64.60;96215.09;4903992;28;20401;-80
2024/01/06 06:55:08;;;;;;;10.80;6.28;;;;;;;8.09;64.50;96232.22;4920110;28;20684;-80
2024/01/06 06:57:33;;;;;;;10.93;5.93;;;;;;;8.04;64.76;96231.16;4904697;28;20262;-80
2024/01/06 07:00:00;;;;;;;11.25;5.60;;;;;;;8.01;64.78;96231.66;4892803;28;20195;-80
2024/01/06 07:02:25;;;;;;;10.55;6.03;;;;;;;8.05;64.51;96232.75;4891337;28;20241;-80
2024/01/06 07:04:51;;;;;;;11.80;6.32;;;;;;;8.03;64.66;96221.81;4891380;28;20679;-80
2024/01/06 07:07:16;;;;;;;10.95;6.53;;;;;;;8.09;64.53;96227.03;4909322;28;20434;-80
2024/01/06 07:09:41;;;;;;;11.27;5.60;;;;;;;7.96;65.28;96229.03;4892367;28;20223;-80
2024/01/06 07:12:07;;;;;;;9.90;5.70;;;;;;;7.94;65.69;96222.56;4891274;28;20795;-80
2024/01/06 07:14:33;;;;;;;10.18;6.25;;;;;;;8.01;64.94;96236.84;4890572;28;20629;-80
2024/01/06 07:16:58;;;;;;;12.02;6.70;;;;;;;8.06;65.18;96236.88;4910419;28;20190;-80
2024/01/06 07:19:24;;;;;;;11.27;6.57;;;;;;;8.05;64.52;96245.69;4907365;28;20249;-80
2024/01/06 07:21:49;;;;;;;10.85;6.75;;;;;;;8.12;64.67;96242.09;4907399;28;20233;-80
2024/01/06 07:24:15;;;;;;;11.70;6.53;;;;;;;8.19;64.12;96253.81;4892098;28;20170;-79
2024/01/06 07:26:40;;;;;;;12.93;7.22;;;;;;;8.14;64.82;96252.97;4908602;28;20751;-80
2024/01/06 07:29:07;;;;;;;10.48;6.93;;;;;;;8.14;64.88;96250.38;4907592;28;20115;-80
2024/01/06 07:31:32;;;;;;;11.10;6.82;;;;;;;8.13;65.39;96251.44;4891242;28;20301;-81
2024/01/06 07:33:57;;;;;;;10.40;6.57;;;;;;;8.18;64.22;96256.66;4907888;28;20288;-80
2024/01/06 07:36:23;;;;;;;12.82;6.78;;;;;;;8.14;64.81;96256.38;4909317;28;20217;-80
2024/01/06 07:38:48;;;;;;;11.00;6.10;;;;;;;8.15;65.05;96267.53;4908223;28;20770;-80
2024/01/06 07:41:13;;;;;;;10.55;6.75;;;;;;;8.14;65.11;96274.53;4891597;28;20629;-80
2024/01/06 07:43:39;;;;;;;11.40;7.05;;;;;;;8.14;64.85;96276.31;4907850;28;20202;-81
2024/01/06 07:46:06;;;;;;;12.50;6.63;;;;;;;8.14;65.22;96276.31;4892378;28;20182;-81
2024/01/06 07:48:32;;;;;;;12.52;7.07;;;;;;;8.10;65.54;96275.28;4893340;28;20276;-81
2024/01/06 07:50:57;;;;;;;11.68;7.32;;;;;;;8.18;64.83;96292.97;4891534;28;20284;-81
2024/01/06 07:53:23;;;;;;;14.13;7.78;;;;;;;8.20;65.60;96289.06;4890846;28;20216;-80
2024/01/06 07:55:49;;;;;;;11.38;6.97;;;;;;;8.17;65.12;96288.78;4908150;28;20209;-80
2024/01/06 07:58:15;;;;;;;12.23;7.28;;;;;;;8.14;64.79;96289.28;4888802;28;20175;-81
2024/01/06 08:00:41;;;;;;;12.35;6.78;;;;;;;8.17;65.33;96293.97;4892618;28;20212;-80
2024/01/06 08:03:06;;;;;;;11.27;7.18;;;;;;;8.12;64.83;96288.75;4892321;28;20609;-80
2024/01/06 08:05:31;;;;;;;12.85;7.18;;;;;;;8.12;64.99;96301.72;4891951;28;20193;-80
2024/01/06 08:07:57;;;;;;;13.85;7.35;;;;;;;8.22;64.82;96309.56;4905623;28;20309;-79
2024/01/06 08:10:23;;;;;;;15.70;7.45;;;;;;;8.17;65.94;96307.72;4926826;28;20252;-79
2024/01/06 08:12:48;;;;;;;13.40;7.88;;;;;;;8.24;65.12;96310.88;4877070;28;20579;-78
2024/01/06 08:15:14;;;;;;;14.52;7.53;;;;;;;8.20;65.01;96306.44;4892072;28;20240;-79
2024/01/06 08:17:40;;;;;;;13.45;7.70;;;;;;;8.23;64.95;96309.31;4892337;28;20658;-79
2024/01/06 08:20:08;;;;;;;12.25;7.25;;;;;;;8.16;65.65;96305.41;4908060;28;20338;-79
2024/01/06 08:22:33;;;;;;;13.35;7.57;;;;;;;8.20;65.61;96312.41;4904803;28;20625;-81
2024/01/06 08:24:59;;;;;;;13.85;7.70;;;;;;;8.21;66.27;96318.38;4875144;28;20206;-79
2024/01/06 08:27:26;;;;;;;15.63;8.13;;;;;;;8.27;65.67;96317.38;4925350;28;20335;-80
2024/01/06 08:29:51;;;;;;;16.90;8.90;;;;;;;8.17;65.50;96306.94;4894346;28;20730;-79
2024/01/06 08:32:16;;;;;;;17.35;8.55;;;;;;;8.25;65.35;96324.63;4879419;28;20194;-79
2024/01/06 08:34:42;;;;;;;12.10;7.75;;;;;;;8.31;66.17;96322.84;4892107;28;20197;-79
2024/01/06 08:37:07;;;;;;;13.80;7.57;;;;;;;8.31;65.02;96325.44;4909466;28;20186;-79
2024/01/06 08:39:33;;;;;;;13.88;7.75;;;;;;;8.33;65.79;96326.75;4896434;28;20293;-79
2024/01/06 08:41:58;;;;;;;13.93;8.27;;;;;;;8.33;65.17;96339.72;4907784;28;20647;-79
2024/01/06 08:44:24;;;;;;;12.88;8.00;;;;;;;8.31;65.97;96334.00;4894554;28;20193;-79
2024/01/06 08:46:50;;;;;;;12.20;7.35;;;;;;;8.29;65.23;96330.88;4907026;28;20308;-79
2024/01/06 08:49:15;;;;;;;12.80;7.43;;;;;;;8.35;65.99;96336.88;4907172;28;20108;-79
2024/01/06 08:51:41;;;;;;;14.10;8.18;;;;;;;8.26;65.73;96336.56;4891598;28;20056;-79
2024/01/06 08:54:06;;;;;;;13.95;7.55;;;;;;;8.29;66.20;96343.06;4893388;28;20198;-80
2024/01/06 08:56:33;;;;;;;15.75;8.25;;;;;;;8.31;66.35;96336.59;4881466;28;20274;-79
2024/01/06 08:58:59;;;;;;;14.63;8.25;;;;;;;8.36;66.41;96338.44;4890648;28;20199;-80
2024/01/06 09:01:24;;;;;;;13.52;7.75;;;;;;;8.39;65.74;96346.50;4892422;28;20175;-79
2024/01/06 09:03:49;;;;;;;14.80;8.30;;;;;;;8.40;66.21;96348.06;4907989;28;20579;-80
2024/01/06 09:06:15;;;;;;;14.40;7.85;;;;;;;8.42;65.37;96350.41;4893204;28;20192;-80
2024/01/06 09:08:40;;;;;;;12.65;7.57;;;;;;;8.33;65.53;96354.50;4893704;28;20081;-80
2024/01/06 09:11:06;;;;;;;15.07;8.13;;;;;;;8.33;66.39;96357.88;4892457;28;20219;-80
2024/01/06 09:13:32;;;;;;;13.93;8.07;;;;;;;8.32;65.50;96358.91;4906607;28;20256;-80
2024/01/06 09:15:58;;;;;;;16.13;8.32;;;;;;;8.36;66.12;96365.16;4893363;28;20684;-80
2024/01/06 09:18:25;;;;;;;13.98;8.48;;;;;;;8.38;65.95;96360.50;4891734;28;20206;-80
2024/01/06 09:20:51;;;;;;;13.52;8.18;;;;;;;8.40;66.62;96370.63;4892940;28;20165;-80
2024/01/06 09:23:16;;;;;;;13.70;8.10;;;;;;;8.41;66.32;96370.38;4910554;28;20304;-80
2024/01/06 09:25:41;;;;;;;12.90;7.57;;;;;;;8.48;65.74;96366.81;4894070;28;20334;-80
2024/01/06 09:28:07;;;;;;;14.40;8.43;;;;;;;8.48;66.08;96359.81;4891790;28;20184;-80
2024/01/06 09:30:32;;;;;;;15.55;7.93;;;;;;;8.50;65.36;96362.94;4907652;28;20224;-80
2024/01/06 09:32:58;;;;;;;13.90;8.77;;;;;;;8.47;65.97;96371.22;4907003;28;20293;-81
2024/01/06 09:35:23;;;;;;;15.50;8.15;;;;;;;8.46;66.13;96371.47;4890134;28;20410;-80
2024/01/06 09:37:49;;;;;;;14.23;8.95;;;;;;;8.48;66.02;96383.16;4915936;28;20594;-80
2024/01/06 09:40:21;;;;;;;15.55;8.20;;;;;;;8.55;65.81;96385.53;4892871;28;20542;-80
2024/01/06 09:42:46;;;;;;;15.20;8.00;;;;;;;8.56;66.18;96392.28;4925111;28;20245;-79
2024/01/06 09:45:11;;;;;;;13.75;8.13;;;;;;;8.52;65.93;96394.59;4910128;28;20755;-79
2024/01/06 09:47:38;;;;;;;14.60;7.40;;;;;;;8.64;66.00;96389.22;4891257;28;20253;-80
2024/01/06 09:50:09;;;;;;;13.88;7.35;;;;;;;8.74;66.06;96388.50;4905636;28;20245;-79
2024/01/06 09:52:40;;;;;;;12.73;7.15;;;;;;;8.83;65.57;96396.59;4905787;28;20609;-81
2024/01/06 09:55:10;;;;;;;10.88;7.00;;;;;;;8.84;65.40;96403.34;4906876;28;20214;-80
2024/01/06 09:57:35;;;;;;;14.02;7.30;;;;;;;8.84;66.10;96401.53;4922622;28;20272;-80
2024/01/06 10:00:01;;;;;;;14.88;8.10;;;;;;;8.82;66.14;96401.00;4907506;28;20489;-81
2024/01/06 10:02:26;;;;;;;14.35;7.57;;;;;;;8.79;66.00;96399.69;4921275;28;20643;-80
2024/01/06 10:04:52;;;;;;;11.02;7.10;;;;;;;8.83;65.47;96396.59;4873160;28;20195;-79
2024/01/06 10:07:17;;;;;;;13.30;7.35;;;;;;;8.85;65.63;96397.13;4896553;28;20258;-77
2024/01/06 10:09:42;;;;;;;15.10;7.95;;;;;;;8.82;66.43;96395.81;4923689;28;20270;-80
2024/01/06 10:12:08;;;;;;;14.00;7.65;;;;;;;8.93;65.61;96401.84;4888580;28;20189;-80
2024/01/06 10:14:33;;;;;;;12.20;7.00;;;;;;;8.81;65.81;96397.63;4919945;28;20194;-79
2024/01/06 10:16:59;;;;;;;11.80;7.13;;;;;;;8.90;65.10;96397.16;4880320;28;20285;-83
2024/01/06 10:19:25;;;;;;;11.63;7.57;;;;;;;8.86;65.94;96401.28;4889482;28;20206;-81
2024/01/06 10:21:50;;;;;;;12.32;7.47;;;;;;;8.68;65.74;96390.28;4903316;28;20209;-80
2024/01/06 10:24:18;;;;;;;14.10;8.45;;;;;;;8.86;65.63;96390.88;4884489;28;20198;-80
2024/01/06 10:26:45;;;;;;;11.55;7.50;;;;;;;8.89;65.87;96400.78;4873790;28;20201;-81
2024/01/06 10:29:11;;;;;;;14.85;7.80;;;;;;;8.84;66.00;96403.34;4887909;28;20242;-78
2024/01/06 10:31:37;;;;;;;13.70;7.65;;;;;;;8.83;66.08;96397.38;4894563;28;20520;-80
2024/01/06 10:34:02;;;;;;;10.95;7.40;;;;;;;8.87;65.50;96398.44;4879853;28;20167;-80
2024/01/06 10:36:28;;;;;;;13.65;7.90;;;;;;;8.87;66.21;96393.22;4925137;28;20245;-80
2024/01/06 10:38:54;;;;;;;13.88;7.75;;;;;;;8.86;66.24;96391.69;4916655;28;20249;-82
2024/01/06 10:41:20;;;;;;;14.20;7.47;;;;;;;8.87;66.48;96400.25;4910377;28;20236;-80
2024/01/06 10:43:46;;;;;;;12.38;7.65;;;;;;;8.98;65.39;96399.28;4911304;28;20205;-81
2024/01/06 10:46:14;;;;;;;11.73;7.43;;;;;;;8.91;66.16;96398.69;4910099;28;20656;-80
2024/01/06 10:48:42;;;;;;;12.65;7.32;;;;;;;8.94;65.95;96398.19;4911799;28;20277;-79
2024/01/06 10:51:08;;;;;;;10.85;6.90;;;;;;;8.97;65.16;96387.31;4887110;28;20267;-80
2024/01/06 10:53:38;;;;;;;14.27;7.80;;;;;;;9.00;65.33;96397.97;4887850;28;20206;-80
2024/01/06 10:56:07;;;;;;;13.05;7.63;;;;;;;9.02;65.19;96395.13;4909215;28;20316;-80
2024/01/06 10:58:36;;;;;;;12.60;7.20;;;;;;;9.02;65.71;96400.31;4935190;28;20279;-80
2024/01/06 11:01:01;;;;;;;12.23;7.30;;;;;;;8.98;65.39;96399.28;4880545;28;20288;-80
2024/01/06 11:03:29;;;;;;;16.02;10.48;;;;;;;8.96;65.76;96403.91;4909517;28;20276;-79
2024/01/06 11:05:54;;;;;;;16.13;8.82;;;;;;;8.96;65.46;96393.53;4912788;28;20282;-80
2024/01/06 11:08:21;;;;;;;13.27;7.43;;;;;;;9.00;66.20;96397.22;4893789;28;20321;-80
2024/01/06 11:10:47;;;;;;;12.38;7.95;;;;;;;9.03;65.45;96396.72;4884809;28;20283;-79
2024/01/06 11:13:14;;;;;;;10.95;7.13;;;;;;;9.06;65.43;96387.63;4885902;28;20756;-80
2024/01/06 11:15:51;;;;;;;11.80;7.63;;;;;;;9.24;65.31;96394.97;4891925;28;20193;-80
2024/01/06 11:18:38;;;;;;;12.73;7.32;;;;;;;9.18;65.12;96388.19;4889447;28;20206;-80
2024/01/06 11:21:29;;;;;;;14.93;8.85;;;;;;;9.21;65.54;96390.28;4890323;28;20735;-80
2024/01/06 11:24:06;;;;;;;10.70;6.85;;;;;;;9.17;65.17;96387.41;4890817;28;20201;-79
2024/01/06 11:26:32;;;;;;;13.10;8.32;;;;;;;9.14;65.80;96387.91;4891298;28;20253;-79
2024/01/06 11:28:58;;;;;;;10.27;6.35;;;;;;;9.16;65.93;96385.06;4904855;28;20715;-79
2024/01/06 11:31:28;;;;;;;9.85;6.65;;;;;;;9.16;65.41;96380.63;4891547;28;20189;-80
2024/01/06 11:33:54;;;;;;;9.48;5.75;;;;;;;9.21;65.30;96382.47;4908305;28;20285;-80